Time;durP1;ratioP1;P1;durP2;ratioP2;P2;SDS_P1;SDS_P2;PMS_P1;PMS_P2;Temp;Humidity;BMP_temperature;BMP_pressure;BME280_temperature;BME280_humidity;BME280_pressure;Samples;Min_cycle;Max_cycle;Signal;HPM_P1;HPM_P2
2021/05/25 00:01:10;;;;;;;2.33;1.73;;;;;;;;;;5061948;28;20241;-62
2021/05/25 00:03:36;;;;;;;4.53;2.10;;;;;;;;;;5067532;28;20529;-62
2021/05/25 00:06:01;;;;;;;2.70;1.80;;;;;;;;;;5068492;28;20228;-62
2021/05/25 00:08:26;;;;;;;2.33;1.40;;;;;;;;;;5062407;28;20235;-63
2021/05/25 00:10:51;;;;;;;2.60;1.93;;;;;;;;;;5061299;28;20241;-63
2021/05/25 00:13:17;;;;;;;2.07;1.70;;;;;;;;;;5068163;28;20221;-63
2021/05/25 00:15:42;;;;;;;4.73;1.70;;;;;;;;;;5049240;28;20226;-62
2021/05/25 00:18:07;;;;;;;4.20;1.80;;;;;;;;;;5066120;28;20283;-61
2021/05/25 00:20:33;;;;;;;2.90;1.80;;;;;;;;;;5068499;28;20557;-61
2021/05/25 00:22:58;;;;;;;2.60;1.80;;;;;;;;;;5062923;28;20303;-62
2021/05/25 00:25:24;;;;;;;1.80;1.50;;;;;;;;;;5061601;28;20237;-62
2021/05/25 00:27:49;;;;;;;3.63;1.93;;;;;;;;;;5066274;28;20258;-62
2021/05/25 00:30:17;;;;;;;2.80;1.70;;;;;;;;;;5068267;28;20659;-62
2021/05/25 00:32:43;;;;;;;2.50;1.67;;;;;;;;;;5062723;28;20653;-62
2021/05/25 00:35:09;;;;;;;2.57;1.67;;;;;;;;;;5061439;28;20927;-61
2021/05/25 00:37:34;;;;;;;1.50;1.30;;;;;;;;;;5066368;28;20464;-62
2021/05/25 00:40:00;;;;;;;1.93;1.50;;;;;;;;;;5067617;28;20446;-62
2021/05/25 00:42:25;;;;;;;2.90;1.87;;;;;;;;;;5062593;28;20235;-61
2021/05/25 00:44:52;;;;;;;62.30;49.00;;;;;;;;;;5060746;28;20248;-63
2021/05/25 00:47:26;;;;;;;17.27;12.93;;;;;;;;;;5066676;28;20240;-61
2021/05/25 00:49:52;;;;;;;15.47;12.93;;;;;;;;;;5069735;28;20847;-63
2021/05/25 00:52:17;;;;;;;10.67;8.57;;;;;;;;;;5065119;28;20463;-64
2021/05/25 00:54:42;;;;;;;7.67;6.53;;;;;;;;;;5066856;28;20220;-63
2021/05/25 00:57:07;;;;;;;24.37;20.50;;;;;;;;;;5063453;28;20303;-63
2021/05/25 00:59:33;;;;;;;10.57;7.73;;;;;;;;;;5060837;28;20236;-61
2021/05/25 01:01:58;;;;;;;22.50;18.50;;;;;;;;;;5064928;28;20229;-61
2021/05/25 01:04:23;;;;;;;12.17;10.10;;;;;;;;;;5067746;28;20219;-63
2021/05/25 01:06:49;;;;;;;21.10;16.40;;;;;;;;;;5062327;28;20231;-63
2021/05/25 01:09:17;;;;;;;6.50;4.50;;;;;;;;;;5060765;28;20287;-63
2021/05/25 01:11:42;;;;;;;9.87;8.43;;;;;;;;;;5064891;28;20278;-63
2021/05/25 01:14:09;;;;;;;9.80;7.80;;;;;;;;;;5065511;28;20908;-62
2021/05/25 01:16:34;;;;;;;8.97;6.83;;;;;;;;;;5063548;28;20564;-62
2021/05/25 01:18:59;;;;;;;5.20;2.20;;;;;;;;;;5060034;28;20455;-63
2021/05/25 01:21:26;;;;;;;14.63;12.27;;;;;;;;;;5064879;28;20228;-62
2021/05/25 01:23:51;;;;;;;9.43;7.13;;;;;;;;;;5066833;28;20274;-61
2021/05/25 01:26:18;;;;;;;4.10;3.30;;;;;;;;;;5063024;28;20499;-63
2021/05/25 01:28:48;;;;;;;3.77;2.40;;;;;;;;;;5059928;28;20251;-62
2021/05/25 01:31:13;;;;;;;6.90;5.57;;;;;;;;;;5064606;28;20821;-63
2021/05/25 01:33:39;;;;;;;10.10;8.10;;;;;;;;;;5067376;28;20614;-63
2021/05/25 01:36:09;;;;;;;5.07;4.27;;;;;;;;;;5062433;28;20297;-63
2021/05/25 01:38:36;;;;;;;5.57;5.07;;;;;;;;;;5060326;28;20459;-63
2021/05/25 01:41:05;;;;;;;4.60;3.23;;;;;;;;;;5063218;28;20465;-63
2021/05/25 01:43:30;;;;;;;2.87;2.20;;;;;;;;;;5067349;28;20463;-62
2021/05/25 01:45:55;;;;;;;4.73;2.73;;;;;;;;;;5063591;28;20547;-62
2021/05/25 01:48:21;;;;;;;6.43;5.07;;;;;;;;;;5060184;28;20560;-62
2021/05/25 01:50:46;;;;;;;8.30;6.07;;;;;;;;;;5063405;28;20217;-62
2021/05/25 01:53:14;;;;;;;5.30;4.07;;;;;;;;;;5067141;28;20603;-62
2021/05/25 01:55:44;;;;;;;6.03;4.33;;;;;;;;;;5063769;28;20242;-61
2021/05/25 01:58:12;;;;;;;3.60;2.50;;;;;;;;;;5059720;28;20470;-62
2021/05/25 02:00:39;;;;;;;5.60;4.17;;;;;;;;;;5062510;28;20503;-63
2021/05/25 02:03:05;;;;;;;2.73;2.17;;;;;;;;;;5066424;28;20470;-62
2021/05/25 02:05:31;;;;;;;5.73;4.20;;;;;;;;;;5066617;28;20466;-62
2021/05/25 02:07:56;;;;;;;5.00;2.73;;;;;;;;;;5064015;28;20285;-62
2021/05/25 02:10:26;;;;;;;1.80;1.70;;;;;;;;;;5066364;28;20935;-62
2021/05/25 02:12:53;;;;;;;5.40;3.83;;;;;;;;;;5070507;28;20225;-61
2021/05/25 02:15:18;;;;;;;5.07;3.80;;;;;;;;;;5056997;28;20455;-62
2021/05/25 02:17:43;;;;;;;5.53;2.30;;;;;;;;;;5070848;28;20533;-62
2021/05/25 02:20:10;;;;;;;2.40;1.57;;;;;;;;;;5068400;28;20226;-62
2021/05/25 02:22:35;;;;;;;2.50;1.90;;;;;;;;;;5063616;28;20223;-62
2021/05/25 02:25:01;;;;;;;2.00;1.70;;;;;;;;;;5065508;28;20923;-62
2021/05/25 02:27:26;;;;;;;2.33;2.00;;;;;;;;;;5070371;28;20257;-63
2021/05/25 02:29:51;;;;;;;3.80;2.43;;;;;;;;;;5068159;28;20647;-63
2021/05/25 02:32:17;;;;;;;2.40;2.13;;;;;;;;;;5063445;28;20224;-62
2021/05/25 02:34:42;;;;;;;6.33;1.97;;;;;;;;;;5066356;28;20339;-63
2021/05/25 02:37:07;;;;;;;2.87;1.73;;;;;;;;;;5069778;28;20233;-63
2021/05/25 02:39:32;;;;;;;3.40;2.13;;;;;;;;;;5067584;28;20629;-63
2021/05/25 02:41:58;;;;;;;2.87;2.40;;;;;;;;;;5061839;28;20228;-62
2021/05/25 02:44:23;;;;;;;3.93;1.97;;;;;;;;;;5066583;28;20316;-61
2021/05/25 02:46:49;;;;;;;4.40;3.40;;;;;;;;;;5069803;28;20263;-63
2021/05/25 02:49:15;;;;;;;4.00;2.30;;;;;;;;;;5066102;28;20540;-63
2021/05/25 02:51:40;;;;;;;3.43;2.20;;;;;;;;;;5062077;28;20233;-62
2021/05/25 02:54:05;;;;;;;2.63;2.03;;;;;;;;;;5067521;28;20647;-62
2021/05/25 02:56:31;;;;;;;2.60;2.37;;;;;;;;;;5069966;28;20614;-63
2021/05/25 02:58:56;;;;;;;2.70;2.40;;;;;;;;;;5064871;28;20217;-62
2021/05/25 03:01:22;;;;;;;3.70;3.37;;;;;;;;;;5073660;28;20656;-62
2021/05/25 03:03:47;;;;;;;5.47;2.80;;;;;;;;;;5064175;28;20652;-61
2021/05/25 03:06:13;;;;;;;2.77;2.20;;;;;;;;;;5062624;28;20308;-61
2021/05/25 03:08:38;;;;;;;3.10;2.80;;;;;;;;;;5069150;28;20244;-61
2021/05/25 03:11:03;;;;;;;5.37;2.33;;;;;;;;;;5069656;28;20299;-62
2021/05/25 03:13:28;;;;;;;6.20;4.40;;;;;;;;;;5063316;28;20224;-62
2021/05/25 03:15:54;;;;;;;4.50;3.00;;;;;;;;;;5061943;28;20259;-61
2021/05/25 03:18:19;;;;;;;2.10;1.70;;;;;;;;;;5065136;28;20308;-62
2021/05/25 03:20:47;;;;;;;4.03;3.60;;;;;;;;;;5069589;28;20262;-63
2021/05/25 03:23:13;;;;;;;3.47;2.60;;;;;;;;;;5065294;28;20220;-62
2021/05/25 03:25:39;;;;;;;5.50;2.87;;;;;;;;;;5062711;28;20870;-62
2021/05/25 03:28:04;;;;;;;5.13;4.03;;;;;;;;;;5065304;28;20300;-61
2021/05/25 03:30:30;;;;;;;5.03;4.53;;;;;;;;;;5069610;28;20217;-63
2021/05/25 03:32:57;;;;;;;4.67;2.80;;;;;;;;;;5065815;28;20237;-62
2021/05/25 03:35:24;;;;;;;4.50;3.70;;;;;;;;;;5062261;28;20239;-62
2021/05/25 03:37:49;;;;;;;8.23;6.03;;;;;;;;;;5065374;28;20480;-62
2021/05/25 03:40:16;;;;;;;3.87;2.67;;;;;;;;;;5067789;28;20456;-62
2021/05/25 03:42:49;;;;;;;5.77;5.17;;;;;;;;;;5066165;28;20217;-61
2021/05/25 03:45:15;;;;;;;5.13;3.70;;;;;;;;;;5061875;28;20836;-63
2021/05/25 03:47:41;;;;;;;5.97;5.37;;;;;;;;;;5064672;28;20939;-62
2021/05/25 03:50:07;;;;;;;6.37;4.30;;;;;;;;;;5068680;28;20546;-62
2021/05/25 03:52:37;;;;;;;3.60;2.90;;;;;;;;;;5067080;28;20228;-61
2021/05/25 03:55:05;;;;;;;7.90;6.27;;;;;;;;;;5061714;28;20778;-62
2021/05/25 03:59:56;;;;;;;4.70;4.17;;;;;;;;;;5068295;28;20467;-62
2021/05/25 04:02:22;;;;;;;7.10;5.57;;;;;;;;;;5067248;28;20240;-62
2021/05/25 04:04:47;;;;;;;5.27;4.50;;;;;;;;;;5061869;28;20227;-61
2021/05/25 04:07:13;;;;;;;15.27;13.70;;;;;;;;;;5063422;28;20237;-61
2021/05/25 04:09:38;;;;;;;13.93;10.73;;;;;;;;;;5068491;28;20258;-62
2021/05/25 04:12:04;;;;;;;17.63;14.60;;;;;;;;;;5066382;28;20235;-62
2021/05/25 04:14:29;;;;;;;7.00;4.80;;;;;;;;;;5056272;28;20545;-62
2021/05/25 04:16:56;;;;;;;2.67;2.47;;;;;;;;;;5066653;28;20304;-62
2021/05/25 04:19:21;;;;;;;10.53;5.43;;;;;;;;;;5061450;28;20632;-63
2021/05/25 04:21:47;;;;;;;6.87;6.17;;;;;;;;;;5063099;28;20471;-62
2021/05/25 04:24:12;;;;;;;18.60;13.20;;;;;;;;;;5067784;28;20346;-61
2021/05/25 04:26:38;;;;;;;8.30;7.40;;;;;;;;;;5066569;28;20463;-61
2021/05/25 04:29:03;;;;;;;17.37;14.67;;;;;;;;;;5059818;28;20221;-62
2021/05/25 04:31:28;;;;;;;35.83;30.37;;;;;;;;;;5063475;28;20389;-62
2021/05/25 04:33:53;;;;;;;11.03;8.60;;;;;;;;;;5068204;28;20228;-61
2021/05/25 04:36:19;;;;;;;16.20;14.50;;;;;;;;;;5065362;28;20248;-61
2021/05/25 04:38:45;;;;;;;9.27;8.33;;;;;;;;;;5061242;28;20244;-62
2021/05/25 04:41:10;;;;;;;34.83;29.37;;;;;;;;;;5063128;28;20228;-62
2021/05/25 04:43:35;;;;;;;8.57;7.73;;;;;;;;;;5067974;28;20271;-62
2021/05/25 04:46:01;;;;;;;15.30;13.20;;;;;;;;;;5065139;28;20220;-62
2021/05/25 04:48:26;;;;;;;24.70;21.13;;;;;;;;;;5059808;28;20577;-62
2021/05/25 04:50:51;;;;;;;14.67;13.10;;;;;;;;;;5064094;28;20213;-61
2021/05/25 04:53:17;;;;;;;20.53;18.43;;;;;;;;;;5067743;28;20224;-61
2021/05/25 04:55:42;;;;;;;22.63;18.87;;;;;;;;;;5064377;28;20234;-61
2021/05/25 04:58:07;;;;;;;14.33;12.70;;;;;;;;;;5060492;28;20244;-61
2021/05/25 05:00:33;;;;;;;16.30;13.30;;;;;;;;;;5064681;28;20224;-61
2021/05/25 05:02:58;;;;;;;16.73;14.83;;;;;;;;;;5067439;28;20231;-62
2021/05/25 05:05:24;;;;;;;17.50;14.17;;;;;;;;;;5063451;28;20220;-61
2021/05/25 05:07:50;;;;;;;6.07;5.13;;;;;;;;;;5058721;28;20213;-61
2021/05/25 05:10:16;;;;;;;6.97;5.10;;;;;;;;;;5061901;28;20489;-62
2021/05/25 05:12:42;;;;;;;8.10;5.63;;;;;;;;;;5060699;28;20225;-62
2021/05/25 05:15:08;;;;;;;7.80;6.57;;;;;;;;;;5062575;28;21030;-62
2021/05/25 05:17:33;;;;;;;14.27;11.70;;;;;;;;;;5067153;28;20247;-62
2021/05/25 05:19:59;;;;;;;8.53;7.70;;;;;;;;;;5064393;28;20474;-62
2021/05/25 05:22:25;;;;;;;10.90;8.20;;;;;;;;;;5059177;28;20224;-60
2021/05/25 05:24:50;;;;;;;11.87;9.83;;;;;;;;;;5063624;28;20248;-59
2021/05/25 05:27:16;;;;;;;15.13;12.13;;;;;;;;;;5066662;28;20512;-59
2021/05/25 05:29:41;;;;;;;4.47;4.07;;;;;;;;;;5064171;28;20607;-60
2021/05/25 05:32:07;;;;;;;11.77;9.33;;;;;;;;;;5060053;28;20469;-60
2021/05/25 05:34:32;;;;;;;8.63;7.53;;;;;;;;;;5063578;28;20221;-60
2021/05/25 05:36:58;;;;;;;13.57;9.63;;;;;;;;;;5066994;28;20225;-61
2021/05/25 05:39:23;;;;;;;31.97;22.50;;;;;;;;;;5063548;28;20215;-59
2021/05/25 05:41:48;;;;;;;25.07;19.47;;;;;;;;;;5059869;28;20231;-61
2021/05/25 05:44:14;;;;;;;41.87;31.43;;;;;;;;;;5062545;28;20225;-59
2021/05/25 05:46:39;;;;;;;21.13;17.70;;;;;;;;;;5066918;28;20211;-60
2021/05/25 05:49:05;;;;;;;38.43;32.30;;;;;;;;;;5063007;28;20238;-60
2021/05/25 05:51:31;;;;;;;23.73;21.13;;;;;;;;;;5060078;28;20228;-60
2021/05/25 05:53:56;;;;;;;16.80;14.07;;;;;;;;;;5064154;28;20682;-59
2021/05/25 05:56:22;;;;;;;9.30;7.30;;;;;;;;;;5066532;28;20474;-60
2021/05/25 05:58:47;;;;;;;4.83;3.97;;;;;;;;;;5063036;28;20493;-60
2021/05/25 06:01:13;;;;;;;13.20;8.57;;;;;;;;;;5059818;28;20578;-60
2021/05/25 06:03:39;;;;;;;26.00;21.57;;;;;;;;;;5063965;28;20231;-60
2021/05/25 06:06:05;;;;;;;18.60;11.17;;;;;;;;;;5065488;28;20456;-60
2021/05/25 06:08:31;;;;;;;19.67;14.63;;;;;;;;;;5063508;28;20477;-61
2021/05/25 06:10:56;;;;;;;6.43;5.33;;;;;;;;;;5059925;28;20472;-60
2021/05/25 06:13:23;;;;;;;6.03;4.93;;;;;;;;;;5062882;28;20219;-61
2021/05/25 06:15:50;;;;;;;6.17;5.50;;;;;;;;;;5055826;28;20243;-61
2021/05/25 06:18:15;;;;;;;9.40;7.80;;;;;;;;;;5063179;28;20464;-60
2021/05/25 06:20:41;;;;;;;7.17;4.87;;;;;;;;;;5066787;28;20482;-61
2021/05/25 06:23:06;;;;;;;8.00;7.20;;;;;;;;;;5062344;28;20234;-60
2021/05/25 06:25:32;;;;;;;8.23;7.03;;;;;;;;;;5059441;28;20216;-60
2021/05/25 06:27:57;;;;;;;5.60;4.73;;;;;;;;;;5064165;28;20649;-59
2021/05/25 06:30:23;;;;;;;5.50;3.97;;;;;;;;;;5066350;28;20637;-60
2021/05/25 06:32:48;;;;;;;9.83;7.77;;;;;;;;;;5061816;28;20655;-61
2021/05/25 06:35:13;;;;;;;5.90;5.30;;;;;;;;;;5059113;28;20221;-61
2021/05/25 06:37:39;;;;;;;13.87;10.97;;;;;;;;;;5064399;28;20242;-60
2021/05/25 06:40:05;;;;;;;6.60;3.37;;;;;;;;;;5066120;28;20254;-61
2021/05/25 06:42:30;;;;;;;3.90;3.20;;;;;;;;;;5052509;28;20556;-60
2021/05/25 06:44:56;;;;;;;5.57;4.83;;;;;;;;;;5066265;28;20460;-61
2021/05/25 06:47:21;;;;;;;3.90;3.30;;;;;;;;;;5059150;28;20305;-61
2021/05/25 06:49:46;;;;;;;9.10;6.80;;;;;;;;;;5059598;28;20220;-61
2021/05/25 06:52:12;;;;;;;6.37;5.10;;;;;;;;;;5066512;28;20235;-60
2021/05/25 06:54:37;;;;;;;5.07;2.33;;;;;;;;;;5069507;28;20349;-60
2021/05/25 06:57:03;;;;;;;5.27;3.57;;;;;;;;;;5063185;28;20223;-60
2021/05/25 06:59:28;;;;;;;4.80;3.77;;;;;;;;;;5063215;28;20553;-61
2021/05/25 07:01:53;;;;;;;3.77;3.40;;;;;;;;;;5069742;28;20227;-60
2021/05/25 07:04:20;;;;;;;7.33;4.03;;;;;;;;;;5068847;28;20250;-60
2021/05/25 07:06:45;;;;;;;9.30;5.53;;;;;;;;;;5062881;28;20216;-59
2021/05/25 07:09:10;;;;;;;8.27;3.67;;;;;;;;;;5063062;28;20470;-60
2021/05/25 07:11:35;;;;;;;2.80;2.33;;;;;;;;;;5069690;28;20306;-60
2021/05/25 07:14:01;;;;;;;3.30;2.93;;;;;;;;;;5066571;28;20276;-60
2021/05/25 07:16:26;;;;;;;2.90;1.63;;;;;;;;;;5063939;28;20212;-60
2021/05/25 07:18:52;;;;;;;2.73;2.17;;;;;;;;;;5062427;28;20212;-61
2021/05/25 07:21:17;;;;;;;2.30;2.10;;;;;;;;;;5068238;28;20280;-60
2021/05/25 07:23:42;;;;;;;4.33;3.53;;;;;;;;;;5069404;28;20218;-59
2021/05/25 07:26:07;;;;;;;4.90;2.47;;;;;;;;;;5062753;28;20223;-60
2021/05/25 07:28:33;;;;;;;10.10;9.07;;;;;;;;;;5062320;28;20606;-60
2021/05/25 07:30:58;;;;;;;4.73;3.77;;;;;;;;;;5069111;28;20607;-61
2021/05/25 07:33:25;;;;;;;6.27;5.40;;;;;;;;;;5069187;28;20230;-59
2021/05/25 07:35:50;;;;;;;6.07;4.90;;;;;;;;;;5048668;28;20301;-60
2021/05/25 07:38:16;;;;;;;8.60;7.10;;;;;;;;;;5062345;28;20875;-61
2021/05/25 07:40:42;;;;;;;4.90;2.87;;;;;;;;;;5069032;28;20233;-59
2021/05/25 07:43:08;;;;;;;12.47;10.37;;;;;;;;;;5056380;28;20299;-61
2021/05/25 07:45:34;;;;;;;2.67;1.90;;;;;;;;;;5069144;28;20839;-61
2021/05/25 07:47:59;;;;;;;7.80;5.20;;;;;;;;;;5067533;28;20647;-60
2021/05/25 07:50:24;;;;;;;14.50;13.03;;;;;;;;;;5061631;28;20230;-60
2021/05/25 07:52:52;;;;;;;7.40;6.70;;;;;;;;;;5060966;28;20313;-60
2021/05/25 07:55:21;;;;;;;3.27;2.97;;;;;;;;;;5059421;28;20274;-61
2021/05/25 07:57:47;;;;;;;7.67;4.43;;;;;;;;;;5055799;28;20455;-59
2021/05/25 08:00:13;;;;;;;4.97;3.50;;;;;;;;;;5068465;28;20477;-60
2021/05/25 08:02:39;;;;;;;8.83;7.10;;;;;;;;;;5059796;28;20248;-61
2021/05/25 08:05:05;;;;;;;8.10;7.27;;;;;;;;;;5068709;28;20458;-60
2021/05/25 08:07:31;;;;;;;13.17;11.60;;;;;;;;;;5067009;28;20449;-60
2021/05/25 08:09:56;;;;;;;13.93;10.83;;;;;;;;;;5057046;28;20465;-61
2021/05/25 08:12:21;;;;;;;8.10;6.40;;;;;;;;;;5066860;28;20647;-61
2021/05/25 08:14:46;;;;;;;10.87;9.00;;;;;;;;;;5056531;28;20246;-60
2021/05/25 08:17:21;;;;;;;3.60;2.77;;;;;;;;;;5068101;28;20662;-61
2021/05/25 08:19:48;;;;;;;10.60;8.87;;;;;;;;;;5063766;28;20654;-61
2021/05/25 08:22:13;;;;;;;5.00;4.50;;;;;;;;;;5061025;28;20468;-61
2021/05/25 08:24:39;;;;;;;8.07;5.50;;;;;;;;;;5065952;28;20509;-60
2021/05/25 08:27:04;;;;;;;8.10;7.27;;;;;;;;;;5063927;28;20656;-60
2021/05/25 08:29:30;;;;;;;3.30;2.57;;;;;;;;;;5063289;28;20218;-60
2021/05/25 08:31:55;;;;;;;4.63;3.60;;;;;;;;;;5061267;28;20225;-60
2021/05/25 08:34:20;;;;;;;10.00;8.07;;;;;;;;;;5065762;28;20239;-61
2021/05/25 08:36:46;;;;;;;4.53;3.83;;;;;;;;;;5067679;28;20555;-60
2021/05/25 08:39:11;;;;;;;6.60;4.03;;;;;;;;;;5062809;28;20216;-60
2021/05/25 08:41:36;;;;;;;6.80;4.47;;;;;;;;;;5060820;28;20242;-60
2021/05/25 08:44:02;;;;;;;4.13;3.00;;;;;;;;;;5066344;28;20654;-60
2021/05/25 08:46:28;;;;;;;5.40;3.90;;;;;;;;;;5067730;28;20220;-61
2021/05/25 08:48:53;;;;;;;5.03;4.53;;;;;;;;;;5062229;28;20461;-61
2021/05/25 08:51:18;;;;;;;5.20;4.03;;;;;;;;;;5059835;28;20555;-59
2021/05/25 08:53:43;;;;;;;3.27;2.97;;;;;;;;;;5072175;28;20229;-61
2021/05/25 08:56:09;;;;;;;2.60;1.90;;;;;;;;;;5060007;28;20684;-61
2021/05/25 08:58:34;;;;;;;3.83;2.70;;;;;;;;;;5066048;28;20302;-60
2021/05/25 09:01:00;;;;;;;3.57;1.87;;;;;;;;;;5063127;28;20284;-61
2021/05/25 09:03:25;;;;;;;3.20;2.90;;;;;;;;;;5061530;28;20608;-60
2021/05/25 09:05:52;;;;;;;5.90;4.20;;;;;;;;;;5060823;28;20266;-61
2021/05/25 09:08:17;;;;;;;6.37;3.60;;;;;;;;;;5071257;28;20257;-61
2021/05/25 09:10:48;;;;;;;4.70;1.73;;;;;;;;;;5060537;28;20478;-60
2021/05/25 09:13:17;;;;;;;2.73;2.53;;;;;;;;;;5065660;28;20217;-60
2021/05/25 09:15:47;;;;;;;3.57;2.17;;;;;;;;;;5055321;28;20524;-62
2021/05/25 09:18:23;;;;;;;1.50;1.37;;;;;;;;;;5064296;28;20455;-61
2021/05/25 09:20:55;;;;;;;2.40;1.70;;;;;;;;;;5067138;28;20475;-61
2021/05/25 09:23:44;;;;;;;4.30;2.57;;;;;;;;;;5064864;28;20595;-59
2021/05/25 09:26:18;;;;;;;2.70;2.00;;;;;;;;;;5050059;28;20458;-60
2021/05/25 09:28:53;;;;;;;3.27;1.97;;;;;;;;;;5060033;28;20459;-61
2021/05/25 09:31:25;;;;;;;3.10;1.70;;;;;;;;;;5062526;28;20466;-61
2021/05/25 09:34:04;;;;;;;3.00;1.63;;;;;;;;;;5067104;28;20509;-62
2021/05/25 09:36:30;;;;;;;3.83;1.90;;;;;;;;;;5064929;28;20480;-62
2021/05/25 09:39:05;;;;;;;2.27;1.40;;;;;;;;;;5060215;28;20486;-60
2021/05/25 09:41:57;;;;;;;3.20;2.60;;;;;;;;;;5059956;28;20816;-60
2021/05/25 09:44:23;;;;;;;1.63;1.53;;;;;;;;;;5063137;28;20506;-61
2021/05/25 09:46:48;;;;;;;2.93;1.80;;;;;;;;;;5066632;28;20471;-60
2021/05/25 09:49:14;;;;;;;3.00;1.77;;;;;;;;;;5064556;28;20216;-60
2021/05/25 09:51:39;;;;;;;6.10;3.23;;;;;;;;;;5059658;28;20231;-60
2021/05/25 09:54:17;;;;;;;2.57;1.83;;;;;;;;;;5063420;28;20224;-61
2021/05/25 09:56:55;;;;;;;2.30;2.10;;;;;;;;;;5066698;28;20278;-61
2021/05/25 09:59:32;;;;;;;2.97;2.40;;;;;;;;;;5067010;28;20533;-60
2021/05/25 10:02:17;;;;;;;3.37;2.23;;;;;;;;;;5061504;28;20474;-60
2021/05/25 10:05:06;;;;;;;1.53;1.33;;;;;;;;;;5059541;28;20482;-60
2021/05/25 10:07:34;;;;;;;3.63;2.27;;;;;;;;;;5046657;28;20757;-60
2021/05/25 10:09:59;;;;;;;3.10;2.40;;;;;;;;;;5031534;28;20463;-60
2021/05/25 10:12:28;;;;;;;2.27;1.50;;;;;;;;;;5032468;28;20456;-60
2021/05/25 10:14:55;;;;;;;3.10;1.90;;;;;;;;;;5033086;28;20218;-59
2021/05/25 10:20:05;;;;;;;2.60;1.53;;;;;;;;;;5031369;28;20782;-59
2021/05/25 10:22:30;;;;;;;3.40;1.70;;;;;;;;;;5031590;28;20491;-61
2021/05/25 10:24:56;;;;;;;3.23;1.73;;;;;;;;;;5031174;28;20459;-60
2021/05/25 10:27:22;;;;;;;4.23;2.10;;;;;;;;;;5033963;28;20608;-60
2021/05/25 10:29:47;;;;;;;1.70;1.07;;;;;;;;;;5050735;28;20224;-60
2021/05/25 10:32:23;;;;;;;2.33;1.87;;;;;;;;;;5036850;28;20220;-59
2021/05/25 10:34:51;;;;;;;1.70;1.60;;;;;;;;;;5036586;28;20307;-59
2021/05/25 10:37:17;;;;;;;2.03;1.60;;;;;;;;;;5036603;28;20473;-60
2021/05/25 10:39:44;;;;;;;6.60;1.50;;;;;;;;;;5037088;28;20780;-60
2021/05/25 10:42:18;;;;;;;1.43;1.33;;;;;;;;;;5037289;28;20258;-61
2021/05/25 10:44:50;;;;;;;2.50;1.90;;;;;;;;;;5036706;28;20846;-60
2021/05/25 10:47:22;;;;;;;1.33;1.23;;;;;;;;;;5037506;28;20423;-59
2021/05/25 10:49:55;;;;;;;1.93;1.50;;;;;;;;;;5036925;28;20467;-60
2021/05/25 10:52:21;;;;;;;3.50;1.83;;;;;;;;;;5037257;28;20456;-60
2021/05/25 10:54:49;;;;;;;4.10;1.70;;;;;;;;;;5036707;28;20511;-60
2021/05/25 10:57:34;;;;;;;2.50;1.83;;;;;;;;;;5037081;28;20475;-60
2021/05/25 11:00:00;;;;;;;4.20;1.80;;;;;;;;;;5036750;28;20471;-61
2021/05/25 11:02:45;;;;;;;2.50;1.77;;;;;;;;;;5036933;28;20472;-60
2021/05/25 11:05:36;;;;;;;3.10;1.90;;;;;;;;;;5036622;28;21191;-59
2021/05/25 11:08:07;;;;;;;2.47;1.97;;;;;;;;;;5036274;28;20432;-60
2021/05/25 11:10:32;;;;;;;6.13;3.10;;;;;;;;;;5036819;28;20437;-59
2021/05/25 11:13:16;;;;;;;3.00;2.53;;;;;;;;;;5036365;28;20531;-59
2021/05/25 11:16:07;;;;;;;3.17;1.77;;;;;;;;;;5036778;28;20214;-60
2021/05/25 11:19:06;;;;;;;3.30;2.47;;;;;;;;;;5035784;28;20458;-60
2021/05/25 11:21:48;;;;;;;3.47;2.43;;;;;;;;;;5035753;28;20488;-60
2021/05/25 11:24:50;;;;;;;2.97;2.23;;;;;;;;;;5036447;28;20865;-60
2021/05/25 11:27:28;;;;;;;3.37;1.63;;;;;;;;;;5035946;28;20502;-60
2021/05/25 11:29:56;;;;;;;5.70;3.40;;;;;;;;;;5036285;28;20456;-60
2021/05/25 11:32:24;;;;;;;2.70;1.97;;;;;;;;;;5035928;28;20518;-60
2021/05/25 11:35:05;;;;;;;2.63;2.20;;;;;;;;;;5036103;28;20467;-59
2021/05/25 11:37:38;;;;;;;2.23;2.07;;;;;;;;;;5035151;28;20459;-60
2021/05/25 11:40:08;;;;;;;2.17;1.90;;;;;;;;;;5035885;28;20464;-60
2021/05/25 11:42:34;;;;;;;6.17;3.43;;;;;;;;;;5035590;28;20904;-60
2021/05/25 11:44:59;;;;;;;5.40;3.37;;;;;;;;;;5036018;28;20475;-61
2021/05/25 11:47:25;;;;;;;6.93;3.37;;;;;;;;;;5035267;28;20671;-61
2021/05/25 11:49:51;;;;;;;4.47;2.63;;;;;;;;;;5051637;28;20692;-61
2021/05/25 11:52:21;;;;;;;3.70;2.50;;;;;;;;;;5035350;28;20553;-61
2021/05/25 11:54:48;;;;;;;2.80;2.00;;;;;;;;;;5035980;28;20460;-62
2021/05/25 11:57:43;;;;;;;2.27;2.07;;;;;;;;;;5035506;28;20456;-61
2021/05/25 12:00:16;;;;;;;2.80;1.90;;;;;;;;;;5035234;28;20464;-60
2021/05/25 12:02:52;;;;;;;2.87;1.90;;;;;;;;;;5035453;28;20449;-61
2021/05/25 12:05:25;;;;;;;4.73;2.30;;;;;;;;;;5035303;28;20455;-60
2021/05/25 12:07:53;;;;;;;2.00;1.50;;;;;;;;;;5035641;28;20886;-60
2021/05/25 12:10:20;;;;;;;4.00;1.90;;;;;;;;;;5035179;28;20471;-60
2021/05/25 12:12:46;;;;;;;2.10;2.00;;;;;;;;;;5035563;28;20453;-60
2021/05/25 12:15:13;;;;;;;2.23;1.73;;;;;;;;;;5035452;28;20956;-60
2021/05/25 12:17:41;;;;;;;3.30;2.10;;;;;;;;;;5034926;28;20764;-60
2021/05/25 12:20:08;;;;;;;2.70;1.80;;;;;;;;;;5035460;28;20519;-59
2021/05/25 12:22:38;;;;;;;2.70;1.70;;;;;;;;;;5034721;28;20473;-60
2021/05/25 12:25:26;;;;;;;1.80;1.70;;;;;;;;;;5047607;28;20471;-59
2021/05/25 12:28:08;;;;;;;1.90;1.20;;;;;;;;;;5047596;28;20444;-60
2021/05/25 12:30:34;;;;;;;2.07;1.30;;;;;;;;;;5037088;28;20461;-60
2021/05/25 12:32:59;;;;;;;2.07;1.20;;;;;;;;;;5037311;28;20492;-60
2021/05/25 12:35:27;;;;;;;1.73;1.30;;;;;;;;;;5053901;28;20517;-61
2021/05/25 12:38:08;;;;;;;1.40;1.07;;;;;;;;;;5053849;28;20553;-61
2021/05/25 12:40:34;;;;;;;2.03;1.10;;;;;;;;;;5054332;28;20478;-62
2021/05/25 12:42:59;;;;;;;4.87;1.10;;;;;;;;;;5053659;28;20456;-60
2021/05/25 12:45:29;;;;;;;1.50;1.10;;;;;;;;;;5054795;28;20232;-61
2021/05/25 12:47:57;;;;;;;2.80;1.57;;;;;;;;;;5054378;28;20630;-61
2021/05/25 12:50:38;;;;;;;1.97;1.10;;;;;;;;;;5053829;28;20463;-60
2021/05/25 12:53:08;;;;;;;1.60;1.23;;;;;;;;;;5054319;28;20530;-60
2021/05/25 12:55:57;;;;;;;1.50;1.00;;;;;;;;;;5054606;28;20458;-60
2021/05/25 12:58:56;;;;;;;1.77;1.40;;;;;;;;;;5053102;28;20472;-60
2021/05/25 13:01:29;;;;;;;2.73;1.63;;;;;;;;;;5047688;28;20460;-60
2021/05/25 13:03:56;;;;;;;1.90;1.20;;;;;;;;;;5054632;28;20509;-59
2021/05/25 13:08:53;;;;;;;3.60;1.47;;;;;;;;;;5037930;28;20931;-61
2021/05/25 13:11:19;;;;;;;1.60;1.30;;;;;;;;;;5034913;28;20791;-60
2021/05/25 13:13:45;;;;;;;35.17;5.73;;;;;;;;;;5040827;28;20540;-60
2021/05/25 13:16:24;;;;;;;1.87;1.50;;;;;;;;;;5034458;28;20472;-61
2021/05/25 13:18:51;;;;;;;1.50;1.40;;;;;;;;;;5033879;28;20458;-59
2021/05/25 13:21:19;;;;;;;2.77;2.10;;;;;;;;;;5033319;28;20552;-60
2021/05/25 13:23:57;;;;;;;3.73;2.10;;;;;;;;;;5033727;28;20523;-60
2021/05/25 13:26:38;;;;;;;6.13;2.67;;;;;;;;;;5033373;28;20514;-60
2021/05/25 13:29:06;;;;;;;2.60;2.40;;;;;;;;;;5034246;28;20436;-60
2021/05/25 13:31:36;;;;;;;2.50;2.03;;;;;;;;;;5034054;28;20905;-60
2021/05/25 13:34:05;;;;;;;2.70;2.50;;;;;;;;;;5047151;28;20429;-59
2021/05/25 13:36:32;;;;;;;3.17;2.87;;;;;;;;;;5053254;28;20509;-60
2021/05/25 13:38:58;;;;;;;4.93;2.60;;;;;;;;;;5054055;28;20513;-60
2021/05/25 13:41:23;;;;;;;3.67;2.00;;;;;;;;;;5053357;28;20481;-60
2021/05/25 13:43:53;;;;;;;1.67;1.57;;;;;;;;;;5053576;28;20471;-60
2021/05/25 13:46:18;;;;;;;1.93;1.60;;;;;;;;;;5053525;28;20247;-61
2021/05/25 13:48:43;;;;;;;1.50;1.40;;;;;;;;;;5053913;28;20464;-60
2021/05/25 13:51:09;;;;;;;1.90;1.17;;;;;;;;;;5053433;28;20213;-60
2021/05/25 13:53:35;;;;;;;2.40;1.47;;;;;;;;;;5053819;28;20640;-60
2021/05/25 13:56:02;;;;;;;1.47;1.30;;;;;;;;;;5053921;28;20209;-60
2021/05/25 13:58:29;;;;;;;1.40;1.20;;;;;;;;;;5053421;28;20810;-60
2021/05/25 14:03:38;;;;;;;3.10;1.30;;;;;;;;;;5037665;28;20502;-60
2021/05/25 14:06:04;;;;;;;4.83;1.27;;;;;;;;;;5037929;28;20540;-60
2021/05/25 14:08:31;;;;;;;2.40;1.50;;;;;;;;;;5037345;28;20716;-60
2021/05/25 14:10:56;;;;;;;49.57;7.00;;;;;;;;;;5037752;28;20211;-60
2021/05/25 14:13:21;;;;;;;2.13;1.60;;;;;;;;;;5037532;28;20464;-62
2021/05/25 14:15:46;;;;;;;4.87;2.53;;;;;;;;;;5037745;28;20243;-61
2021/05/25 14:18:12;;;;;;;6.13;2.20;;;;;;;;;;5037627;28;20256;-61
2021/05/25 14:20:39;;;;;;;2.73;2.10;;;;;;;;;;5037139;28;20576;-62
2021/05/25 14:23:04;;;;;;;2.57;1.90;;;;;;;;;;5037628;28;20657;-61
2021/05/25 14:25:31;;;;;;;2.20;2.00;;;;;;;;;;5037054;28;20527;-60
2021/05/25 14:27:56;;;;;;;1.87;1.70;;;;;;;;;;5037306;28;20230;-61
2021/05/25 14:30:22;;;;;;;2.50;1.80;;;;;;;;;;5036859;28;20464;-61
2021/05/25 14:32:48;;;;;;;2.37;1.90;;;;;;;;;;5040122;28;20349;-61
2021/05/25 14:35:13;;;;;;;2.10;1.90;;;;;;;;;;5056345;28;20247;-61
2021/05/25 14:37:39;;;;;;;2.27;1.50;;;;;;;;;;5056482;28;20304;-61
2021/05/25 14:40:05;;;;;;;1.80;1.40;;;;;;;;;;5057167;28;20555;-61
2021/05/25 14:42:30;;;;;;;3.20;1.57;;;;;;;;;;5056505;28;20540;-61
2021/05/25 14:44:56;;;;;;;3.00;1.50;;;;;;;;;;5056983;28;20475;-62
2021/05/25 14:47:21;;;;;;;3.03;2.07;;;;;;;;;;5056545;28;20221;-61
2021/05/25 14:49:48;;;;;;;2.20;1.70;;;;;;;;;;5057063;28;20224;-60
2021/05/25 14:52:13;;;;;;;3.13;1.43;;;;;;;;;;5057030;28;20225;-60